createdAt,value
2019-05-17T00:02:29.263Z,99.90
2019-05-17T00:05:17.901Z,99.90
2019-05-17T00:08:08.762Z,99.90
2019-05-17T00:10:57.058Z,99.90
2019-05-17T00:13:46.622Z,99.90
2019-05-17T00:16:34.442Z,99.90
2019-05-17T00:19:23.481Z,99.90
2019-05-17T00:22:11.883Z,99.90
2019-05-17T00:24:59.917Z,99.90
2019-05-17T00:27:47.754Z,99.90
2019-05-17T00:30:37.201Z,99.90
2019-05-17T00:33:27.203Z,99.90
2019-05-17T00:36:17.887Z,99.90
2019-05-17T00:39:07.473Z,99.90
2019-05-17T00:41:57.278Z,99.90
2019-05-17T00:44:47.179Z,99.90
2019-05-17T00:47:37.214Z,99.90
2019-05-17T00:50:24.398Z,99.90
2019-05-17T00:53:12.057Z,99.90
2019-05-17T00:55:59.672Z,99.90
2019-05-17T00:58:47.863Z,99.90
2019-05-17T01:01:36.462Z,99.90
2019-05-17T01:04:24.475Z,99.90
2019-05-17T01:07:12.925Z,99.90
2019-05-17T01:10:00.967Z,99.90
2019-05-17T01:12:50.097Z,99.90
2019-05-17T01:15:37.923Z,99.90
2019-05-17T01:18:28.279Z,99.90
2019-05-17T01:21:18.333Z,99.90
2019-05-17T01:24:06.865Z,99.90
2019-05-17T01:26:57.268Z,99.90
2019-05-17T01:29:46.549Z,99.90
2019-05-17T01:32:34.168Z,99.90
2019-05-17T01:35:21.977Z,99.90
2019-05-17T01:38:21.565Z,99.90
2019-05-17T01:41:11.866Z,99.90
2019-05-17T01:43:59.228Z,99.90
2019-05-17T01:46:46.875Z,99.90
2019-05-17T01:49:36.285Z,99.90
2019-05-17T01:52:24.441Z,99.90
2019-05-17T01:55:12.622Z,99.90
2019-05-17T01:58:00.887Z,99.90
2019-05-17T02:00:48.940Z,99.90
2019-05-17T02:03:39.974Z,99.90
2019-05-17T02:06:28.265Z,99.90
2019-05-17T02:09:32.350Z,99.90
2019-05-17T02:12:06.698Z,99.90
2019-05-17T02:14:54.279Z,99.90
2019-05-17T02:17:42.050Z,99.90
2019-05-17T02:20:30.092Z,99.90
2019-05-17T02:23:18.434Z,99.90
2019-05-17T02:26:06.787Z,99.90
2019-05-17T02:28:54.864Z,99.90
2019-05-17T02:31:43.484Z,99.90
2019-05-17T02:34:33.728Z,99.90
2019-05-17T02:37:23.258Z,99.90
2019-05-17T02:40:14.409Z,99.90
2019-05-17T02:43:03.119Z,99.90
2019-05-17T02:45:52.807Z,99.90
2019-05-17T02:48:42.761Z,99.90
2019-05-17T02:51:32.855Z,99.90
2019-05-17T02:54:23.499Z,99.90
2019-05-17T02:57:13.822Z,99.90
2019-05-17T03:00:03.996Z,99.90
2019-05-17T03:02:53.359Z,99.90
2019-05-17T03:05:42.826Z,99.90
2019-05-17T03:08:29.170Z,99.90
2019-05-17T03:11:16.992Z,99.90
2019-05-17T03:14:05.350Z,99.90
2019-05-17T03:16:53.802Z,99.90
2019-05-17T03:19:43.562Z,99.90
2019-05-17T03:22:33.386Z,99.90
2019-05-17T03:25:23.828Z,99.90
2019-05-17T03:28:13.458Z,99.90
2019-05-17T03:31:06.803Z,99.90
2019-05-17T03:33:55.745Z,99.90
2019-05-17T03:36:46.264Z,99.90
2019-05-17T03:39:33.340Z,99.90
2019-05-17T03:42:22.622Z,99.90
2019-05-17T03:45:13.650Z,99.90
2019-05-17T03:48:04.700Z,99.90
2019-05-17T03:50:54.482Z,99.90
2019-05-17T03:53:44.215Z,99.90
2019-05-17T03:56:33.391Z,99.90
2019-05-17T03:59:24.060Z,99.90
2019-05-17T04:02:12.430Z,99.90
2019-05-17T04:05:03.935Z,99.90
2019-05-17T04:07:53.340Z,99.90
2019-05-17T04:10:42.582Z,99.90
2019-05-17T04:13:29.987Z,99.90
2019-05-17T04:16:18.029Z,99.90
2019-05-17T04:19:05.959Z,99.90
2019-05-17T04:21:55.095Z,99.90
2019-05-17T04:24:43.966Z,99.90
2019-05-17T04:27:32.865Z,99.90
2019-05-17T04:30:23.345Z,99.90
2019-05-17T04:33:13.389Z,99.90
2019-05-17T04:36:02.615Z,99.90
2019-05-17T04:38:52.628Z,99.90
2019-05-17T04:41:49.121Z,99.90
2019-05-17T04:44:32.052Z,99.90
2019-05-17T04:47:22.710Z,99.90
2019-05-17T04:50:13.002Z,99.90
2019-05-17T04:53:02.576Z,99.90
2019-05-17T04:55:53.760Z,99.90
2019-05-17T04:58:42.658Z,99.90
2019-05-17T05:01:28.919Z,99.90
2019-05-17T05:04:17.069Z,99.90
2019-05-17T05:07:05.606Z,99.90
2019-05-17T05:09:53.863Z,99.90
2019-05-17T05:12:43.419Z,99.90
2019-05-17T05:15:43.959Z,99.90
2019-05-17T05:18:32.819Z,99.90
2019-05-17T05:21:23.045Z,99.90
2019-05-17T05:24:11.552Z,99.90
2019-05-17T05:27:02.451Z,99.90
2019-05-17T05:29:52.208Z,99.90
2019-05-17T05:32:42.267Z,99.90
2019-05-17T05:35:31.791Z,99.90
2019-05-17T05:38:21.646Z,99.90
2019-05-17T05:41:12.074Z,99.90
2019-05-17T05:44:01.644Z,99.90
2019-05-17T05:46:48.621Z,99.90
2019-05-17T05:49:36.478Z,99.90
2019-05-17T05:52:24.566Z,99.90
2019-05-17T05:55:12.773Z,99.90
2019-05-17T05:58:02.831Z,99.90
2019-05-17T06:00:50.042Z,99.90
2019-05-17T06:03:38.283Z,99.90
2019-05-17T06:06:26.039Z,99.90
2019-05-17T06:09:14.283Z,99.90
2019-05-17T06:12:02.674Z,99.90
2019-05-17T06:14:52.381Z,99.90
2019-05-17T06:17:42.956Z,99.90
2019-05-17T06:20:32.334Z,99.90
2019-05-17T06:23:20.403Z,99.90
2019-05-17T06:26:08.490Z,99.90
2019-05-17T06:28:56.345Z,99.90
2019-05-17T06:31:44.775Z,99.90
2019-05-17T06:34:33.188Z,99.90
2019-05-17T06:37:22.358Z,99.90
2019-05-17T06:40:12.697Z,99.90
2019-05-17T06:43:04.210Z,99.90
2019-05-17T06:45:52.202Z,99.90
2019-05-17T06:48:42.350Z,99.90
2019-05-17T06:51:31.654Z,99.90
2019-05-17T06:54:21.626Z,99.90
2019-05-17T06:57:09.929Z,99.90
2019-05-17T06:59:59.343Z,99.90
2019-05-17T07:02:49.822Z,99.90
2019-05-17T07:05:40.407Z,99.90
2019-05-17T07:08:29.553Z,99.90
2019-05-17T07:11:21.090Z,99.90
2019-05-17T07:14:09.497Z,99.90
2019-05-17T07:16:59.604Z,99.90
2019-05-17T07:19:47.057Z,99.90
2019-05-17T07:22:35.157Z,99.90
2019-05-17T07:25:23.328Z,99.90
2019-05-17T07:28:11.460Z,99.90
2019-05-17T07:30:59.905Z,99.90
2019-05-17T07:33:50.318Z,99.90
2019-05-17T07:36:39.793Z,99.90
2019-05-17T07:39:29.471Z,99.90
2019-05-17T07:42:19.443Z,99.90
2019-05-17T07:45:07.154Z,99.90
2019-05-17T07:47:54.786Z,99.90
2019-05-17T07:50:42.699Z,99.90
2019-05-17T07:53:30.908Z,99.90
2019-05-17T07:56:19.965Z,99.90
2019-05-17T07:59:09.515Z,99.90
2019-05-17T08:01:59.692Z,99.90
2019-05-17T08:04:49.941Z,99.90
2019-05-17T08:07:39.577Z,99.90
2019-05-17T08:10:29.659Z,99.40
2019-05-17T08:13:29.649Z,99.10
2019-05-17T08:16:06.190Z,98.20
2019-05-17T08:18:57.124Z,98.60
2019-05-17T08:21:45.458Z,98.20
2019-05-17T08:24:33.236Z,98.10
2019-05-17T08:27:21.161Z,97.60
2019-05-17T08:30:10.565Z,97.60
2019-05-17T08:33:00.902Z,96.80
2019-05-17T08:35:49.441Z,96.20
2019-05-17T08:38:39.434Z,96.50
2019-05-17T08:41:30.665Z,96.20
2019-05-17T08:44:19.273Z,96.40
2019-05-17T08:47:10.071Z,96.40
2019-05-17T08:50:00.943Z,96.20
2019-05-17T08:52:52.718Z,95.70
2019-05-17T08:55:41.330Z,94.70
2019-05-17T08:58:31.514Z,96.00
2019-05-17T09:01:22.107Z,94.70
2019-05-17T09:04:10.490Z,94.00
2019-05-17T09:07:03.167Z,93.70
2019-05-17T09:09:53.119Z,93.00
2019-05-17T09:12:41.492Z,92.80
2019-05-17T09:15:33.356Z,93.20
2019-05-17T09:18:21.116Z,93.20
2019-05-17T09:21:09.725Z,92.50
2019-05-17T09:23:59.716Z,92.50
2019-05-17T09:26:49.186Z,92.10
2019-05-17T09:29:40.210Z,93.20
2019-05-17T09:32:29.627Z,92.00
2019-05-17T09:35:20.557Z,91.50
2019-05-17T09:38:10.124Z,92.60
2019-05-17T09:40:59.729Z,91.50
2019-05-17T09:43:49.537Z,91.20
2019-05-17T09:46:36.535Z,91.40
2019-05-17T09:49:24.572Z,90.40
2019-05-17T09:52:12.659Z,90.90
2019-05-17T09:55:00.741Z,91.00
2019-05-17T09:57:49.659Z,90.90
2019-05-17T10:00:38.219Z,91.70
2019-05-17T10:03:26.530Z,91.30
2019-05-17T10:06:14.558Z,90.00
2019-05-17T10:09:02.670Z,90.50
2019-05-17T10:11:50.915Z,89.70
2019-05-17T10:14:39.024Z,89.20
2019-05-17T10:17:29.450Z,87.80
2019-05-17T10:20:19.996Z,91.10
2019-05-17T10:23:10.340Z,90.10
2019-05-17T10:25:59.530Z,88.50
2019-05-17T10:28:47.641Z,87.80
2019-05-17T10:31:35.551Z,85.40
2019-05-17T10:34:23.588Z,83.90
2019-05-17T10:37:11.500Z,83.30
2019-05-17T10:39:59.552Z,82.90
2019-05-17T10:42:49.865Z,84.00
2019-05-17T10:45:36.955Z,82.30
2019-05-17T10:48:24.613Z,81.10
2019-05-17T10:51:13.466Z,82.20
2019-05-17T10:54:04.039Z,80.50
2019-05-17T10:56:50.685Z,81.60
2019-05-17T10:59:38.355Z,80.10
2019-05-17T11:02:26.014Z,79.80
2019-05-17T11:05:14.021Z,78.80
2019-05-17T11:08:01.553Z,80.50
2019-05-17T11:10:50.129Z,77.60
2019-05-17T11:13:38.280Z,79.20
2019-05-17T11:16:28.102Z,80.30
2019-05-17T11:19:15.885Z,77.20
2019-05-17T11:22:04.129Z,75.70
2019-05-17T11:24:52.139Z,78.90
2019-05-17T11:27:39.825Z,78.20
2019-05-17T11:30:27.202Z,77.20
2019-05-17T11:33:14.845Z,77.10
2019-05-17T11:36:02.174Z,76.40
2019-05-17T11:38:49.723Z,77.10
2019-05-17T11:41:37.733Z,77.60
2019-05-17T11:44:25.770Z,78.50
2019-05-17T11:47:13.251Z,79.40
2019-05-17T11:50:00.978Z,76.40
2019-05-17T11:52:48.758Z,76.40
2019-05-17T11:55:36.543Z,73.90
2019-05-17T11:58:24.574Z,74.30
2019-05-17T12:01:12.272Z,75.70
2019-05-17T12:04:00.047Z,74.60
2019-05-17T12:06:47.482Z,77.30
2019-05-17T12:09:37.754Z,78.80
2019-05-17T12:12:23.974Z,78.30
2019-05-17T12:15:11.939Z,77.60
2019-05-17T12:17:59.481Z,76.00
2019-05-17T12:20:46.998Z,76.70
2019-05-17T12:23:34.523Z,75.10
2019-05-17T12:26:21.934Z,75.70
2019-05-17T12:29:09.426Z,72.70
2019-05-17T12:31:56.978Z,75.60
2019-05-17T12:34:44.795Z,77.30
2019-05-17T12:37:32.993Z,77.80
2019-05-17T12:40:20.858Z,78.50
2019-05-17T12:43:08.865Z,76.90
2019-05-17T12:46:00.683Z,76.40
2019-05-17T12:48:45.963Z,76.50
2019-05-17T12:51:33.678Z,76.60
2019-05-17T12:54:21.678Z,76.00
2019-05-17T12:57:09.360Z,76.90
2019-05-17T12:59:57.427Z,77.50
2019-05-17T13:02:45.088Z,78.60
2019-05-17T13:05:32.830Z,79.30
2019-05-17T13:08:20.504Z,79.20
2019-05-17T13:11:08.650Z,79.20
2019-05-17T13:13:56.286Z,78.60
2019-05-17T13:16:44.301Z,79.40
2019-05-17T13:19:32.088Z,79.20
2019-05-17T13:22:20.422Z,79.20
2019-05-17T13:25:08.993Z,78.40
2019-05-17T13:27:57.005Z,76.80
2019-05-17T13:30:44.864Z,75.40
2019-05-17T13:33:32.939Z,73.90
2019-05-17T13:36:20.997Z,74.70
2019-05-17T13:39:08.987Z,75.50
2019-05-17T13:41:57.279Z,73.80
2019-05-17T13:44:45.512Z,75.60
2019-05-17T13:47:33.273Z,76.80
2019-05-17T13:50:20.868Z,73.60
2019-05-17T13:53:08.802Z,72.40
2019-05-17T13:55:56.901Z,73.60
2019-05-17T13:58:44.180Z,73.00
2019-05-17T14:01:31.701Z,73.20
2019-05-17T14:04:19.693Z,73.80
2019-05-17T14:07:07.792Z,73.80
2019-05-17T14:09:55.796Z,73.20
2019-05-17T14:12:43.713Z,72.30
2019-05-17T14:15:31.634Z,73.00
2019-05-17T14:18:19.480Z,69.70
2019-05-17T14:21:07.363Z,71.90
2019-05-17T14:23:55.082Z,72.00
2019-05-17T14:26:43.085Z,71.90
2019-05-17T14:29:31.059Z,73.50
2019-05-17T14:32:19.002Z,72.20
2019-05-17T14:35:06.735Z,72.60
2019-05-17T14:37:54.500Z,72.30
2019-05-17T14:43:32.878Z,74.10
2019-05-17T14:46:20.710Z,73.70
2019-05-17T14:49:08.782Z,74.20
2019-05-17T14:51:56.803Z,75.00
2019-05-17T14:54:44.277Z,75.00
2019-05-17T14:57:31.849Z,75.80
2019-05-17T15:00:20.309Z,74.00
2019-05-17T15:03:08.631Z,73.10
2019-05-17T15:05:56.482Z,72.30
2019-05-17T15:08:44.416Z,72.30
2019-05-17T15:11:32.340Z,73.60
2019-05-17T15:14:20.237Z,72.70
2019-05-17T15:17:08.272Z,68.90
2019-05-17T15:19:56.004Z,70.40
2019-05-17T15:22:43.500Z,70.60
2019-05-17T15:25:31.419Z,71.40
2019-05-17T15:28:18.906Z,71.50
2019-05-17T15:31:06.607Z,70.90
2019-05-17T15:33:54.522Z,70.80
2019-05-17T15:36:42.262Z,71.10
2019-05-17T15:39:30.132Z,71.00
2019-05-17T15:42:17.918Z,71.60
2019-05-17T15:45:09.233Z,72.80
2019-05-17T15:47:57.012Z,73.30
2019-05-17T15:50:45.552Z,75.30
2019-05-17T15:53:33.286Z,74.90
2019-05-17T15:56:21.137Z,75.00
2019-05-17T15:59:10.987Z,73.40
2019-05-17T16:01:58.609Z,73.50
2019-05-17T16:04:46.179Z,73.10
2019-05-17T16:07:33.970Z,72.60
2019-05-17T16:10:22.223Z,74.50
2019-05-17T16:13:10.082Z,72.70
2019-05-17T16:15:57.606Z,70.20
2019-05-17T16:18:45.367Z,67.30
2019-05-17T16:21:32.886Z,63.20
2019-05-17T16:24:20.583Z,64.20
2019-05-17T16:27:18.623Z,58.80
2019-05-17T16:30:23.517Z,56.80
2019-05-17T16:33:11.679Z,56.00
2019-05-17T16:35:59.530Z,53.40
2019-05-17T16:38:56.497Z,53.70
2019-05-17T16:41:44.360Z,52.40
2019-05-17T16:44:32.500Z,52.40
2019-05-17T16:47:20.447Z,52.90
2019-05-17T16:50:08.755Z,54.00
2019-05-17T16:53:05.415Z,53.00
2019-05-17T16:55:45.993Z,53.60
2019-05-17T16:58:33.805Z,55.90
2019-05-17T17:01:21.989Z,57.50
2019-05-17T17:04:09.774Z,59.40
2019-05-17T17:06:58.134Z,61.60
2019-05-17T17:09:45.737Z,62.40
2019-05-17T17:12:33.895Z,63.00
2019-05-17T17:15:21.839Z,63.00
2019-05-17T17:18:09.542Z,60.90
2019-05-17T17:20:57.295Z,58.20
2019-05-17T17:23:45.273Z,56.50
2019-05-17T17:26:33.532Z,55.00
2019-05-17T17:29:20.920Z,53.60
2019-05-17T17:32:20.832Z,52.30
2019-05-17T17:34:58.158Z,52.10
2019-05-17T17:37:46.117Z,53.50
2019-05-17T17:40:33.534Z,56.30
2019-05-17T17:43:21.301Z,58.10
2019-05-17T17:46:09.515Z,60.10
2019-05-17T17:48:57.258Z,62.00
2019-05-17T17:51:45.374Z,63.70
2019-05-17T17:54:33.030Z,65.20
2019-05-17T17:57:20.880Z,67.40
2019-05-17T18:00:09.066Z,69.10
2019-05-17T18:02:57.034Z,70.10
2019-05-17T18:05:45.018Z,71.40
2019-05-17T18:08:34.746Z,72.70
2019-05-17T18:11:22.931Z,74.30
2019-05-17T18:14:13.693Z,75.90
2019-05-17T18:17:00.602Z,77.30
2019-05-17T18:19:48.080Z,78.10
2019-05-17T18:22:36.530Z,78.80
2019-05-17T18:25:24.173Z,79.50
2019-05-17T18:28:11.816Z,80.30
2019-05-17T18:30:59.605Z,80.90
2019-05-17T18:33:47.729Z,81.80
2019-05-17T18:36:38.364Z,82.50
2019-05-17T18:39:24.982Z,83.30
2019-05-17T18:42:12.901Z,83.90
2019-05-17T18:45:00.474Z,84.80
2019-05-17T18:47:50.524Z,85.10
2019-05-17T18:50:37.721Z,85.90
2019-05-17T18:53:25.369Z,86.50
2019-05-17T18:56:13.591Z,87.30
2019-05-17T18:59:01.423Z,88.10
2019-05-17T19:01:48.959Z,88.70
2019-05-17T19:04:36.937Z,88.90
2019-05-17T19:07:24.758Z,89.30
2019-05-17T19:10:12.982Z,90.10
2019-05-17T19:13:00.802Z,90.50
2019-05-17T19:15:48.446Z,90.80
2019-05-17T19:18:36.398Z,91.10
2019-05-17T19:21:24.133Z,91.20
2019-05-17T19:24:12.131Z,91.50
2019-05-17T19:26:59.898Z,92.10
2019-05-17T19:29:47.883Z,91.80
2019-05-17T19:32:35.661Z,92.00
2019-05-17T19:35:23.477Z,92.30
2019-05-17T19:38:11.167Z,92.60
2019-05-17T19:40:58.831Z,92.90
2019-05-17T19:43:46.469Z,93.00
2019-05-17T19:46:34.352Z,93.60
2019-05-17T19:49:21.723Z,93.90
2019-05-17T19:52:09.781Z,94.60
2019-05-17T19:54:57.605Z,95.10
2019-05-17T19:57:45.540Z,95.20
2019-05-17T20:00:33.309Z,95.30
2019-05-17T20:03:21.644Z,96.00
2019-05-17T20:06:09.996Z,96.20
2019-05-17T20:08:58.138Z,96.80
2019-05-17T20:11:46.290Z,97.00
2019-05-17T20:14:34.297Z,97.40
2019-05-17T20:17:22.096Z,97.80
2019-05-17T20:20:10.148Z,98.20
2019-05-17T20:22:58.222Z,97.70
2019-05-17T20:25:46.599Z,97.90
2019-05-17T20:28:34.971Z,98.10
2019-05-17T20:31:22.903Z,98.20
2019-05-17T20:34:13.447Z,98.20
2019-05-17T20:37:01.440Z,98.30
2019-05-17T20:39:49.780Z,98.60
2019-05-17T20:42:37.788Z,98.90
2019-05-17T20:45:33.177Z,98.80
2019-05-17T20:48:15.554Z,99.20
2019-05-17T20:51:03.847Z,99.90
2019-05-17T20:53:51.713Z,99.90
2019-05-17T20:56:39.485Z,99.90
2019-05-17T20:59:27.467Z,99.90
2019-05-17T21:02:15.778Z,99.90
2019-05-17T21:05:03.649Z,99.90
2019-05-17T21:07:51.236Z,99.90
2019-05-17T21:10:39.310Z,99.90
2019-05-17T21:13:30.690Z,99.90
2019-05-17T21:16:19.058Z,99.90
2019-05-17T21:19:06.662Z,99.90
2019-05-17T21:21:54.088Z,99.90
2019-05-17T21:24:42.318Z,99.90
2019-05-17T21:27:30.662Z,99.90
2019-05-17T21:30:18.529Z,99.90
2019-05-17T21:33:06.430Z,99.90
2019-05-17T21:35:54.244Z,99.90
2019-05-17T21:38:42.591Z,99.90
2019-05-17T21:41:30.602Z,99.90
2019-05-17T21:44:18.717Z,99.90
2019-05-17T21:47:06.741Z,99.90
2019-05-17T21:49:54.639Z,99.90
2019-05-17T21:52:42.568Z,99.90
2019-05-17T21:55:30.408Z,99.90
2019-05-17T21:58:20.466Z,99.90
2019-05-17T22:01:19.773Z,99.90
2019-05-17T22:04:07.693Z,99.90
2019-05-17T22:06:56.132Z,99.90
2019-05-17T22:09:44.477Z,99.90
2019-05-17T22:12:32.647Z,99.90
2019-05-17T22:15:20.397Z,99.90
2019-05-17T22:18:08.152Z,99.90
2019-05-17T22:20:56.438Z,99.90
2019-05-17T22:23:45.114Z,99.90
2019-05-17T22:26:32.925Z,99.90
2019-05-17T22:29:21.157Z,99.90
2019-05-17T22:32:09.212Z,99.90
2019-05-17T22:34:57.501Z,99.90
2019-05-17T22:37:46.372Z,99.90
2019-05-17T22:40:34.574Z,99.90
2019-05-17T22:43:24.059Z,99.90
2019-05-17T22:46:12.366Z,99.90
2019-05-17T22:49:02.385Z,99.90
2019-05-17T22:51:50.605Z,99.90
2019-05-17T22:54:39.417Z,99.90
2019-05-17T22:57:27.582Z,99.90
2019-05-17T23:00:15.913Z,99.90
2019-05-17T23:03:03.803Z,99.90
2019-05-17T23:05:51.718Z,99.90
2019-05-17T23:08:39.883Z,99.90
2019-05-17T23:11:27.976Z,99.90
2019-05-17T23:14:16.198Z,99.90
2019-05-17T23:17:04.465Z,99.90
2019-05-17T23:19:52.538Z,99.90
2019-05-17T23:22:40.056Z,99.90
2019-05-17T23:25:28.300Z,99.90
2019-05-17T23:28:16.372Z,99.90
2019-05-17T23:31:04.432Z,99.90
2019-05-17T23:33:52.359Z,99.90
2019-05-17T23:36:40.893Z,99.90
2019-05-17T23:39:28.983Z,99.90
2019-05-17T23:42:17.380Z,99.90
2019-05-17T23:45:06.094Z,99.90
2019-05-17T23:47:54.337Z,99.90
2019-05-17T23:50:42.864Z,99.90
2019-05-17T23:53:30.559Z,99.90
2019-05-17T23:56:19.036Z,99.90
2019-05-17T23:59:07.214Z,99.90
